createdAt,value
2019-02-24T00:00:50.172Z,77.45
2019-02-24T00:03:21.127Z,72.75
2019-02-24T00:05:51.883Z,81.22
2019-02-24T00:08:22.518Z,69.67
2019-02-24T00:10:53.393Z,70.32
2019-02-24T00:13:25.168Z,61.33
2019-02-24T00:15:56.126Z,62.88
2019-02-24T00:18:26.879Z,60.78
2019-02-24T00:20:57.522Z,50.95
2019-02-24T00:23:28.389Z,56.48
2019-02-24T00:25:59.145Z,56.53
2019-02-24T00:28:29.894Z,56.98
2019-02-24T00:31:00.751Z,55.83
2019-02-24T00:33:31.610Z,63.78
2019-02-24T00:36:02.346Z,61.35
2019-02-24T00:38:32.894Z,172.17
2019-02-24T00:41:03.769Z,169.30
2019-02-24T00:43:34.520Z,76.05
2019-02-24T00:46:05.276Z,80.62
2019-02-24T00:48:35.926Z,96.30
2019-02-24T00:51:06.783Z,81.35
2019-02-24T00:53:37.418Z,51.15
2019-02-24T00:56:08.188Z,43.98
2019-02-24T00:58:38.837Z,31.95
2019-02-24T01:01:09.591Z,40.52
2019-02-24T01:03:40.230Z,43.15
2019-02-24T01:06:10.998Z,56.92
2019-02-24T01:08:41.631Z,60.30
2019-02-24T01:11:12.489Z,54.30
2019-02-24T01:13:44.283Z,60.25
2019-02-24T01:16:15.139Z,63.85
2019-02-24T01:18:45.893Z,86.57
2019-02-24T01:21:16.545Z,83.35
2019-02-24T01:23:47.402Z,94.45
2019-02-24T01:26:18.135Z,49.63
2019-02-24T01:28:48.907Z,53.02
2019-02-24T01:31:19.865Z,59.90
2019-02-24T01:33:50.621Z,75.25
2019-02-24T01:36:21.372Z,51.73
2019-02-24T01:38:52.026Z,55.58
2019-02-24T01:41:22.880Z,68.65
2019-02-24T01:43:53.516Z,58.30
2019-02-24T01:46:24.286Z,51.60
2019-02-24T01:48:54.820Z,55.35
2019-02-24T01:51:25.691Z,53.85
2019-02-24T01:53:56.443Z,52.58
2019-02-24T01:56:27.197Z,50.00
2019-02-24T01:58:57.850Z,58.23
2019-02-24T02:01:28.690Z,53.63
2019-02-24T02:03:59.544Z,45.25
2019-02-24T02:08:59.842Z,37.60
2019-02-24T02:11:30.582Z,40.43
2019-02-24T02:14:02.269Z,41.08
2019-02-24T02:16:33.125Z,32.10
2019-02-24T02:19:03.761Z,38.40
2019-02-24T02:21:34.637Z,33.50
2019-02-24T02:24:05.492Z,36.53
2019-02-24T02:26:36.246Z,30.72
2019-02-24T02:29:06.898Z,44.03
2019-02-24T02:31:37.735Z,45.40
2019-02-24T02:34:08.509Z,52.03
2019-02-24T02:36:39.260Z,40.05
2019-02-24T02:39:10.001Z,38.83
2019-02-24T02:41:40.806Z,40.65
2019-02-24T02:44:11.620Z,34.95
2019-02-24T02:46:42.276Z,37.28
2019-02-24T02:49:13.129Z,38.23
2019-02-24T02:51:43.866Z,43.02
2019-02-24T02:54:14.517Z,36.50
2019-02-24T02:56:45.172Z,33.53
2019-02-24T02:59:15.926Z,41.80
2019-02-24T03:01:46.803Z,38.78
2019-02-24T03:04:17.552Z,37.78
2019-02-24T03:07:05.080Z,38.23
2019-02-24T03:09:35.934Z,32.67
2019-02-24T03:12:06.695Z,36.98
2019-02-24T03:14:38.362Z,36.13
2019-02-24T03:17:09.321Z,36.85
2019-02-24T03:19:39.857Z,35.78
2019-02-24T03:22:10.626Z,33.45
2019-02-24T03:24:41.481Z,31.40
2019-02-24T03:27:12.232Z,40.55
2019-02-24T03:29:42.884Z,40.00
2019-02-24T03:32:13.844Z,40.63
2019-02-24T03:34:44.598Z,38.83
2019-02-24T03:37:15.247Z,37.50
2019-02-24T03:39:46.108Z,41.58
2019-02-24T03:42:16.960Z,39.88
2019-02-24T03:44:47.716Z,39.18
2019-02-24T03:47:18.363Z,35.63
2019-02-24T03:49:49.103Z,36.28
2019-02-24T03:52:19.855Z,41.80
2019-02-24T03:54:50.628Z,37.78
2019-02-24T03:57:21.278Z,40.00
2019-02-24T03:59:52.135Z,43.13
2019-02-24T04:02:22.991Z,42.85
2019-02-24T04:04:53.626Z,43.87
2019-02-24T04:07:24.292Z,41.30
2019-02-24T04:09:55.032Z,47.08
2019-02-24T04:12:25.888Z,39.38
2019-02-24T04:14:57.680Z,32.95
2019-02-24T04:17:28.536Z,37.90
2019-02-24T04:19:59.066Z,37.93
2019-02-24T04:22:29.943Z,35.70
2019-02-24T04:25:00.694Z,31.68
2019-02-24T04:27:31.449Z,33.83
2019-02-24T04:30:02.101Z,36.03
2019-02-24T04:32:32.956Z,41.23
2019-02-24T04:35:03.589Z,40.45
2019-02-24T04:37:34.361Z,49.45
2019-02-24T04:40:06.243Z,47.70
2019-02-24T04:42:36.571Z,32.35
2019-02-24T04:45:07.240Z,33.50
2019-02-24T04:47:38.093Z,39.20
2019-02-24T04:50:08.849Z,32.48
2019-02-24T04:52:39.598Z,39.40
2019-02-24T04:55:10.251Z,41.20
2019-02-24T04:57:41.091Z,48.38
2019-02-24T05:00:11.744Z,48.10
2019-02-24T05:02:42.497Z,52.85
2019-02-24T05:05:13.164Z,42.08
2019-02-24T05:07:44.024Z,51.02
2019-02-24T05:10:14.677Z,47.03
2019-02-24T05:12:45.514Z,52.20
2019-02-24T05:15:17.085Z,38.95
2019-02-24T05:17:47.545Z,75.20
2019-02-24T05:20:18.182Z,378.75
2019-02-24T05:22:49.063Z,253.75
2019-02-24T05:25:19.792Z,213.57
2019-02-24T05:27:50.545Z,169.90
2019-02-24T05:30:21.197Z,132.55
2019-02-24T05:32:52.075Z,111.03
2019-02-24T05:35:22.718Z,87.17
2019-02-24T05:37:53.460Z,115.62
2019-02-24T05:40:24.005Z,75.03
2019-02-24T05:42:54.657Z,92.72
2019-02-24T05:45:25.533Z,90.38
2019-02-24T05:47:56.270Z,62.83
2019-02-24T05:50:26.919Z,52.27
2019-02-24T05:52:57.573Z,48.87
2019-02-24T05:55:28.444Z,48.02
2019-02-24T05:57:59.304Z,53.85
2019-02-24T06:00:29.940Z,54.45
2019-02-24T06:03:00.705Z,50.08
2019-02-24T06:05:31.357Z,46.63
2019-02-24T06:08:02.218Z,47.83
2019-02-24T06:10:32.852Z,46.53
2019-02-24T06:13:03.600Z,34.55
2019-02-24T06:15:35.191Z,39.88
2019-02-24T06:18:05.641Z,39.58
2019-02-24T06:20:37.986Z,22.95
2019-02-24T06:23:08.679Z,34.60
2019-02-24T06:25:39.418Z,27.15
2019-02-24T06:28:10.184Z,23.83
2019-02-24T06:30:40.839Z,25.05
2019-02-24T06:33:11.593Z,15.32
2019-02-24T06:35:42.347Z,16.07
2019-02-24T06:38:13.081Z,15.95
2019-02-24T06:40:43.756Z,17.30
2019-02-24T06:43:14.388Z,20.68
2019-02-24T06:45:45.140Z,14.43
2019-02-24T06:48:15.891Z,14.38
2019-02-24T06:50:50.839Z,10.18
2019-02-24T06:53:21.615Z,14.55
2019-02-24T06:55:52.272Z,13.60
2019-02-24T06:58:23.116Z,12.98
2019-02-24T07:00:53.872Z,8.93
2019-02-24T07:03:25.046Z,8.60
2019-02-24T07:05:55.586Z,12.23
2019-02-24T07:08:26.424Z,10.35
2019-02-24T07:10:57.091Z,8.38
2019-02-24T07:13:27.827Z,11.57
2019-02-24T07:15:59.404Z,14.63
2019-02-24T07:18:30.204Z,15.20
2019-02-24T07:21:01.030Z,18.27
2019-02-24T07:23:31.867Z,15.25
2019-02-24T07:26:02.637Z,17.10
2019-02-24T07:28:33.288Z,19.98
2019-02-24T07:31:04.143Z,15.90
2019-02-24T07:36:04.613Z,13.75
2019-02-24T07:38:35.488Z,10.68
2019-02-24T07:41:07.977Z,12.03
2019-02-24T07:43:38.614Z,14.60
2019-02-24T07:46:09.485Z,10.05
2019-02-24T07:48:40.239Z,11.35
2019-02-24T07:51:12.374Z,9.45
2019-02-24T07:53:43.180Z,5.53
2019-02-24T07:56:14.034Z,10.93
2019-02-24T07:58:44.667Z,9.18
2019-02-24T08:01:15.439Z,8.50
2019-02-24T08:03:46.091Z,8.03
2019-02-24T08:06:16.929Z,16.42
2019-02-24T08:08:47.597Z,6.53
2019-02-24T08:11:18.234Z,8.13
2019-02-24T08:16:19.639Z,12.13
2019-02-24T08:18:52.037Z,5.80
2019-02-24T08:21:22.594Z,6.45
2019-02-24T08:23:53.248Z,8.68
2019-02-24T08:28:53.713Z,9.68
2019-02-24T08:33:54.303Z,9.07
2019-02-24T08:36:24.973Z,12.35
2019-02-24T08:41:25.461Z,7.40
2019-02-24T08:46:25.943Z,5.67
2019-02-24T08:48:56.798Z,10.43
2019-02-24T08:51:27.449Z,2.98
2019-02-24T08:53:58.303Z,4.30
2019-02-24T08:56:28.956Z,3.12
2019-02-24T08:58:59.708Z,3.00
2019-02-24T09:01:30.360Z,1.85
2019-02-24T09:04:01.366Z,7.75
2019-02-24T09:06:32.073Z,1.70
2019-02-24T09:09:02.837Z,4.17
2019-02-24T09:14:03.191Z,4.00
2019-02-24T09:19:04.818Z,6.30
2019-02-24T09:21:35.468Z,5.08
2019-02-24T09:26:35.837Z,4.57
2019-02-24T09:31:36.340Z,6.50
2019-02-24T09:36:36.823Z,5.37
2019-02-24T09:39:07.476Z,10.55
2019-02-24T09:41:38.332Z,10.32
2019-02-24T09:44:09.066Z,6.12
2019-02-24T09:49:11.085Z,7.85
2019-02-24T09:51:41.755Z,6.33
2019-02-24T09:56:42.135Z,5.80
2019-02-24T10:01:42.605Z,5.97
2019-02-24T10:06:43.090Z,15.43
2019-02-24T10:09:13.965Z,6.25
2019-02-24T10:11:44.511Z,6.95
2019-02-24T10:16:45.918Z,7.20
2019-02-24T10:19:16.776Z,5.58
2019-02-24T10:21:47.322Z,6.15
2019-02-24T10:26:47.692Z,7.37
2019-02-24T10:29:18.343Z,7.00
2019-02-24T10:34:18.741Z,10.82
2019-02-24T10:36:49.597Z,13.28
2019-02-24T10:39:29.355Z,14.53
2019-02-24T10:41:53.742Z,6.92
2019-02-24T10:44:24.217Z,6.70
2019-02-24T10:49:24.696Z,10.63
2019-02-24T10:51:55.330Z,8.53
2019-02-24T10:56:55.612Z,5.08
2019-02-24T11:01:55.893Z,7.58
2019-02-24T11:04:26.441Z,8.73
2019-02-24T11:09:26.943Z,8.50
2019-02-24T11:11:57.491Z,8.53
2019-02-24T11:14:28.040Z,10.82
2019-02-24T11:16:59.816Z,6.97
2019-02-24T11:19:30.553Z,5.42
2019-02-24T11:22:01.120Z,9.40
2019-02-24T11:27:01.592Z,11.50
2019-02-24T11:29:32.368Z,5.72
2019-02-24T11:34:32.826Z,9.13
2019-02-24T11:39:33.310Z,9.23
2019-02-24T11:42:03.777Z,8.53
2019-02-24T11:47:04.576Z,7.28
2019-02-24T11:52:05.031Z,11.75
2019-02-24T11:54:35.856Z,9.33
2019-02-24T11:59:37.519Z,11.08
2019-02-24T12:02:08.480Z,10.48
2019-02-24T12:07:08.873Z,9.63
2019-02-24T12:12:09.468Z,11.30
2019-02-24T12:14:41.531Z,8.73
2019-02-24T12:17:13.308Z,8.48
2019-02-24T12:19:44.147Z,5.95
2019-02-24T12:22:14.409Z,12.00
2019-02-24T12:27:14.892Z,9.03
2019-02-24T12:32:15.376Z,6.87
2019-02-24T12:37:17.461Z,7.47
2019-02-24T12:39:47.927Z,11.45
2019-02-24T12:42:18.800Z,8.03
2019-02-24T12:44:49.332Z,9.93
2019-02-24T12:49:49.941Z,10.87
2019-02-24T12:52:20.799Z,9.13
2019-02-24T12:54:51.224Z,8.58
2019-02-24T12:59:51.729Z,14.38
2019-02-24T13:04:53.293Z,8.43
2019-02-24T13:07:23.887Z,7.50
2019-02-24T13:12:24.372Z,7.37
2019-02-24T13:17:25.883Z,11.38
2019-02-24T13:19:56.822Z,10.05
2019-02-24T13:22:27.591Z,9.23
2019-02-24T13:27:28.178Z,7.27
2019-02-24T13:32:28.560Z,11.48
2019-02-24T13:34:59.400Z,9.43
2019-02-24T13:37:30.782Z,9.43
2019-02-24T13:40:01.226Z,6.65
2019-02-24T13:45:01.714Z,8.30
2019-02-24T13:50:02.186Z,6.67
2019-02-24T13:52:32.749Z,9.15
2019-02-24T13:57:33.133Z,8.75
2019-02-24T14:02:33.510Z,6.20
2019-02-24T14:05:04.254Z,7.62
2019-02-24T14:07:34.511Z,9.85
2019-02-24T14:10:07.096Z,9.23
2019-02-24T14:12:37.452Z,13.38
2019-02-24T14:15:12.505Z,16.37
2019-02-24T14:17:42.951Z,20.60
2019-02-24T14:22:43.637Z,17.55
2019-02-24T14:25:14.843Z,18.90
2019-02-24T14:27:45.659Z,21.45
2019-02-24T14:30:17.220Z,20.30
2019-02-24T14:32:48.186Z,23.12
2019-02-24T14:35:20.276Z,25.35
2019-02-24T14:37:50.721Z,24.43
2019-02-24T14:42:51.201Z,23.40
2019-02-24T14:45:24.102Z,21.70
2019-02-24T14:47:54.844Z,14.68
2019-02-24T14:50:25.611Z,20.17
2019-02-24T14:52:56.247Z,16.45
2019-02-24T14:55:27.019Z,17.75
2019-02-24T14:57:57.873Z,12.60
2019-02-24T15:00:28.524Z,17.32
2019-02-24T15:05:28.991Z,14.70
2019-02-24T15:10:29.701Z,9.53
2019-02-24T15:13:00.351Z,9.50
2019-02-24T15:18:04.926Z,13.30
2019-02-24T15:20:35.678Z,9.53
2019-02-24T15:25:37.289Z,11.78
2019-02-24T15:28:08.146Z,11.15
2019-02-24T15:30:39.827Z,9.60
2019-02-24T15:33:10.166Z,15.88
2019-02-24T15:35:40.804Z,15.55
2019-02-24T15:38:11.570Z,20.95
2019-02-24T15:40:42.226Z,13.32
2019-02-24T15:43:13.078Z,14.70
2019-02-24T15:45:43.716Z,14.83
2019-02-24T15:48:14.485Z,14.20
2019-02-24T15:50:45.137Z,15.93
2019-02-24T15:53:15.991Z,15.98
2019-02-24T15:55:46.847Z,16.50
2019-02-24T15:58:17.990Z,21.60
2019-02-24T16:00:48.562Z,18.90
2019-02-24T16:03:19.397Z,17.48
2019-02-24T16:05:50.050Z,16.35
2019-02-24T16:08:20.803Z,19.42
2019-02-24T16:10:51.458Z,19.02
2019-02-24T16:13:22.328Z,18.37
2019-02-24T16:15:53.080Z,16.35
2019-02-24T16:18:24.857Z,18.02
2019-02-24T16:20:55.596Z,24.23
2019-02-24T16:25:56.096Z,25.90
2019-02-24T16:28:26.834Z,21.70
2019-02-24T16:30:57.590Z,20.32
2019-02-24T16:33:28.463Z,29.07
2019-02-24T16:35:59.095Z,28.25
2019-02-24T16:38:30.789Z,31.52
2019-02-24T16:41:01.542Z,29.65
2019-02-24T16:43:32.194Z,34.40
2019-02-24T16:46:03.049Z,24.85
2019-02-24T16:48:33.807Z,33.88
2019-02-24T16:51:04.438Z,37.80
2019-02-24T16:56:06.983Z,39.92
2019-02-24T16:58:37.841Z,29.63
2019-02-24T17:01:08.474Z,34.27
2019-02-24T17:03:39.229Z,29.55
2019-02-24T17:06:09.896Z,29.75
2019-02-24T17:08:40.752Z,33.95
2019-02-24T17:11:11.609Z,26.12
2019-02-24T17:13:42.365Z,25.90
2019-02-24T17:16:13.015Z,22.15
2019-02-24T17:18:45.612Z,25.62
2019-02-24T17:21:16.464Z,24.90
2019-02-24T17:23:49.839Z,21.35
2019-02-24T17:26:19.286Z,22.15
2019-02-24T17:28:50.157Z,23.02
2019-02-24T17:31:28.149Z,25.17
2019-02-24T17:33:52.999Z,30.62
2019-02-24T17:36:23.752Z,21.68
2019-02-24T17:38:54.605Z,27.93
2019-02-24T17:41:25.359Z,24.47
2019-02-24T17:43:56.010Z,30.65
2019-02-24T17:46:26.747Z,32.38
2019-02-24T17:48:57.521Z,34.35
2019-02-24T17:51:28.255Z,35.80
2019-02-24T17:56:28.758Z,34.97
2019-02-24T17:58:59.394Z,42.95
2019-02-24T18:01:30.050Z,60.70
2019-02-24T18:04:00.864Z,48.48
2019-02-24T18:06:31.551Z,41.18
2019-02-24T18:09:02.307Z,45.52
2019-02-24T18:11:33.181Z,48.38
2019-02-24T18:14:04.040Z,32.08
2019-02-24T18:16:34.788Z,35.52
2019-02-24T18:19:07.180Z,28.27
2019-02-24T18:21:40.157Z,26.80
2019-02-24T18:24:13.088Z,25.02
2019-02-24T18:26:43.822Z,25.32
2019-02-24T18:29:14.471Z,25.10
2019-02-24T18:31:45.335Z,26.23
2019-02-24T18:34:17.010Z,28.38
2019-02-24T18:36:47.450Z,27.85
2019-02-24T18:39:18.201Z,25.90
2019-02-24T18:41:48.958Z,26.35
2019-02-24T18:46:49.443Z,34.08
2019-02-24T18:49:20.214Z,31.40
2019-02-24T18:51:50.864Z,23.98
2019-02-24T18:54:21.704Z,28.75
2019-02-24T18:56:52.354Z,27.13
2019-02-24T18:59:23.125Z,21.82
2019-02-24T19:01:53.455Z,37.28
2019-02-24T19:06:54.059Z,21.80
2019-02-24T19:09:24.589Z,23.67
2019-02-24T19:11:55.460Z,31.25
2019-02-24T19:14:26.321Z,21.77
2019-02-24T19:16:57.292Z,24.47
2019-02-24T19:19:27.928Z,23.45
2019-02-24T19:21:58.889Z,19.07
2019-02-24T19:24:29.638Z,24.40
2019-02-24T19:27:00.398Z,27.98
2019-02-24T19:29:31.251Z,23.95
2019-02-24T19:32:01.985Z,20.10
2019-02-24T19:34:32.760Z,23.18
2019-02-24T19:37:03.596Z,21.07
2019-02-24T19:39:34.468Z,21.70
2019-02-24T19:42:05.224Z,20.10
2019-02-24T19:44:35.755Z,22.07
2019-02-24T19:47:06.612Z,26.77
2019-02-24T19:49:37.365Z,26.10
2019-02-24T19:52:08.136Z,27.52
2019-02-24T19:54:38.787Z,27.05
2019-02-24T19:57:09.627Z,25.65
2019-02-24T19:59:40.501Z,21.40
2019-02-24T20:02:12.772Z,24.75
2019-02-24T20:04:43.134Z,23.98
2019-02-24T20:09:43.623Z,27.73
2019-02-24T20:12:14.354Z,25.60
2019-02-24T20:14:45.229Z,26.40
2019-02-24T20:17:16.086Z,25.52
2019-02-24T20:19:47.756Z,30.17
2019-02-24T20:22:18.601Z,27.87
2019-02-24T20:24:49.368Z,25.68
2019-02-24T20:27:20.329Z,26.33
2019-02-24T20:29:51.184Z,27.20
2019-02-24T20:32:21.837Z,24.15
2019-02-24T20:34:52.691Z,24.43
2019-02-24T20:37:23.446Z,26.07
2019-02-24T20:39:54.199Z,22.00
2019-02-24T20:42:24.849Z,27.60
2019-02-24T20:44:55.707Z,23.45
2019-02-24T20:47:26.561Z,25.10
2019-02-24T20:49:57.419Z,20.88
2019-02-24T20:52:28.170Z,26.77
2019-02-24T20:54:58.821Z,26.85
2019-02-24T20:57:29.782Z,24.80
2019-02-24T21:00:00.540Z,25.72
2019-02-24T21:02:31.294Z,27.35
2019-02-24T21:05:02.148Z,26.12
2019-02-24T21:07:33.002Z,25.55
2019-02-24T21:10:04.454Z,28.80
2019-02-24T21:12:35.017Z,31.77
2019-02-24T21:15:11.704Z,27.75
2019-02-24T21:17:42.273Z,31.68
2019-02-24T21:20:22.109Z,26.68
2019-02-24T21:22:52.865Z,33.15
2019-02-24T21:25:23.517Z,34.03
2019-02-24T21:27:54.373Z,26.45
2019-02-24T21:30:25.127Z,32.63
2019-02-24T21:32:56.290Z,32.48
2019-02-24T21:35:26.839Z,25.75
2019-02-24T21:37:57.742Z,28.35
2019-02-24T21:40:28.548Z,25.55
2019-02-24T21:42:59.204Z,28.25
2019-02-24T21:45:29.938Z,26.75
2019-02-24T21:48:00.691Z,23.50
2019-02-24T21:50:31.350Z,27.02
2019-02-24T21:55:32.056Z,29.37
2019-02-24T21:58:04.351Z,32.13
2019-02-24T22:00:34.990Z,28.40
2019-02-24T22:03:05.828Z,34.83
2019-02-24T22:05:36.598Z,28.70
2019-02-24T22:08:07.251Z,26.68
2019-02-24T22:10:37.987Z,27.52
2019-02-24T22:13:08.862Z,29.23
2019-02-24T22:15:39.614Z,34.65
2019-02-24T22:18:10.266Z,39.40
2019-02-24T22:20:41.226Z,37.45
2019-02-24T22:23:12.082Z,38.60
2019-02-24T22:25:42.731Z,34.25
2019-02-24T22:28:13.578Z,61.15
2019-02-24T22:30:44.341Z,56.35
2019-02-24T22:33:15.077Z,59.23
2019-02-24T22:35:45.748Z,46.88
2019-02-24T22:38:16.610Z,32.20
2019-02-24T22:40:54.184Z,35.40
2019-02-24T22:43:19.526Z,20.43
2019-02-24T22:45:50.198Z,22.20
2019-02-24T22:48:21.072Z,23.27
2019-02-24T22:50:51.906Z,20.52
2019-02-24T22:53:22.659Z,19.37
2019-02-24T22:55:53.191Z,17.20
2019-02-24T22:58:24.065Z,17.25
2019-02-24T23:01:01.963Z,26.27
2019-02-24T23:03:34.751Z,26.07
2019-02-24T23:06:05.103Z,29.57
2019-02-24T23:08:35.874Z,23.55
2019-02-24T23:11:06.732Z,21.50
2019-02-24T23:13:39.334Z,21.10
2019-02-24T23:16:09.551Z,21.20
2019-02-24T23:21:11.084Z,22.97
2019-02-24T23:23:42.034Z,33.88
2019-02-24T23:26:12.791Z,30.68
2019-02-24T23:28:43.444Z,25.80
2019-02-24T23:31:14.187Z,24.30
2019-02-24T23:33:45.050Z,23.67
2019-02-24T23:36:15.683Z,25.65
2019-02-24T23:41:16.271Z,16.35
2019-02-24T23:43:46.937Z,17.25
2019-02-24T23:46:17.677Z,16.45
2019-02-24T23:48:48.431Z,25.95
2019-02-24T23:51:19.205Z,34.53
2019-02-24T23:53:49.856Z,24.40
2019-02-24T23:56:20.708Z,23.40
2019-02-24T23:58:51.567Z,18.20
